createdAt,value
2022-10-17T06:32:03.678Z,80.57
2022-10-17T06:34:52.032Z,80.95
2022-10-17T06:37:39.308Z,81.08
2022-10-17T06:40:29.625Z,79.88
2022-10-17T06:43:16.988Z,80.74
2022-10-17T06:46:17.361Z,80.66
2022-10-17T06:49:14.388Z,79.95
2022-10-17T06:52:09.324Z,79.99
2022-10-17T06:55:04.777Z,80.78
2022-10-17T06:58:09.081Z,79.86
2022-10-17T07:01:22.806Z,80.80
2022-10-17T07:04:14.098Z,80.89
2022-10-17T07:07:01.690Z,80.64
2022-10-17T07:09:49.730Z,81.03
2022-10-17T07:12:37.604Z,80.89
2022-10-17T07:15:25.004Z,80.86
2022-10-17T07:18:12.141Z,79.89
2022-10-17T07:20:59.494Z,79.90
2022-10-17T07:23:46.772Z,80.25
2022-10-17T07:26:36.581Z,80.88
2022-10-17T07:29:24.194Z,79.96
2022-10-17T07:32:20.204Z,80.78
2022-10-17T07:35:07.263Z,80.76
2022-10-17T07:37:54.159Z,81.20
2022-10-17T07:40:41.924Z,80.15
2022-10-17T07:43:28.913Z,80.49
2022-10-17T07:46:15.941Z,80.79
2022-10-17T07:49:03.516Z,80.74
2022-10-17T07:51:50.904Z,81.00
2022-10-17T07:54:37.824Z,80.70
2022-10-17T07:57:24.977Z,80.26
2022-10-17T07:59:51.953Z,80.70
2022-10-17T08:02:23.685Z,80.35
2022-10-17T08:05:07.347Z,80.00
2022-10-17T08:07:34.466Z,80.37
2022-10-17T08:10:01.418Z,81.03
2022-10-17T08:12:48.517Z,80.75
2022-10-17T08:15:35.488Z,80.68
2022-10-17T08:18:22.439Z,80.93
2022-10-17T08:21:09.632Z,79.77
2022-10-17T08:23:57.092Z,80.48
2022-10-17T08:26:46.157Z,80.42
2022-10-17T08:29:36.501Z,80.71
2022-10-17T08:32:23.874Z,79.70
2022-10-17T08:35:10.919Z,80.53
2022-10-17T08:37:57.915Z,80.45
2022-10-17T08:40:47.788Z,80.35
2022-10-17T08:43:54.074Z,80.02
2022-10-17T08:46:41.455Z,79.80
2022-10-17T08:49:37.329Z,79.81
2022-10-17T08:52:46.338Z,79.74
2022-10-17T08:55:53.417Z,79.53
2022-10-17T08:58:49.351Z,79.69
2022-10-17T09:02:11.923Z,79.66
2022-10-17T09:05:26.361Z,79.58
2022-10-17T09:08:19.952Z,79.67
2022-10-17T09:11:23.415Z,79.48
2022-10-17T09:14:10.464Z,79.68
2022-10-17T09:17:34.190Z,79.52
2022-10-17T09:20:29.260Z,79.85
2022-10-17T09:23:01.398Z,79.48
2022-10-17T09:25:29.196Z,79.95
2022-10-17T09:28:18.099Z,79.13
2022-10-17T09:31:16.184Z,79.07
2022-10-17T09:34:06.586Z,79.00
2022-10-17T09:36:52.171Z,79.01
2022-10-17T09:39:23.483Z,78.87
2022-10-17T09:42:16.684Z,79.19
2022-10-17T09:45:16.096Z,79.09
2022-10-17T09:48:10.697Z,78.99
2022-10-17T09:51:14.844Z,78.52
2022-10-17T09:54:12.476Z,78.31
2022-10-17T09:57:22.753Z,78.34
2022-10-17T10:00:22.078Z,78.01
2022-10-17T10:03:09.055Z,77.68
2022-10-17T10:05:55.972Z,77.73
2022-10-17T10:08:46.436Z,77.24
2022-10-17T10:11:33.418Z,77.12
2022-10-17T10:14:55.420Z,77.08
2022-10-17T10:17:55.460Z,77.32
2022-10-17T10:20:55.749Z,77.35
2022-10-17T10:23:42.640Z,76.98
2022-10-17T10:26:54.804Z,76.91
2022-10-17T10:29:44.396Z,76.70
2022-10-17T10:32:42.483Z,76.58
2022-10-17T10:35:39.083Z,75.87
2022-10-17T10:38:37.609Z,76.44
2022-10-17T10:41:30.057Z,75.84
2022-10-17T10:44:16.997Z,75.85
2022-10-17T10:47:04.356Z,75.68
2022-10-17T10:49:53.091Z,76.09
2022-10-17T10:52:49.728Z,75.29
2022-10-17T10:55:54.615Z,75.09
2022-10-17T10:58:57.060Z,74.79
2022-10-17T11:02:08.367Z,74.35
2022-10-17T11:05:09.888Z,75.01
2022-10-17T11:08:04.311Z,73.48
2022-10-17T11:10:51.234Z,74.28
2022-10-17T11:13:43.687Z,73.65
2022-10-17T11:16:54.561Z,73.32
2022-10-17T11:20:26.166Z,73.61
2022-10-17T11:23:18.701Z,73.00
2022-10-17T11:26:06.573Z,72.17
2022-10-17T11:28:53.613Z,72.66
2022-10-17T11:31:43.268Z,71.64
2022-10-17T11:35:07.313Z,72.40
2022-10-17T11:37:59.694Z,71.15
2022-10-17T11:40:56.780Z,71.06
2022-10-17T11:43:47.523Z,71.87
2022-10-17T11:46:42.339Z,71.22
2022-10-17T11:49:50.883Z,70.69
2022-10-17T11:52:55.882Z,70.08
2022-10-17T11:55:46.929Z,69.64
2022-10-17T11:59:00.041Z,69.56
2022-10-17T12:02:01.729Z,69.46
2022-10-17T12:05:09.639Z,69.55
2022-10-17T12:08:12.627Z,69.20
2022-10-17T12:11:04.796Z,69.75
2022-10-17T12:13:51.747Z,69.50
2022-10-17T12:19:45.548Z,69.21
2022-10-17T12:22:48.426Z,69.01
2022-10-17T12:28:37.252Z,68.51
2022-10-17T12:31:33.656Z,68.16
2022-10-17T12:34:24.948Z,67.82
2022-10-17T12:37:12.488Z,67.80
2022-10-17T12:39:59.467Z,68.12
2022-10-17T12:42:51.734Z,67.44
2022-10-17T12:46:20.396Z,66.99
2022-10-17T12:49:45.005Z,66.98
2022-10-17T12:52:37.619Z,67.16
2022-10-17T12:55:24.553Z,67.57
2022-10-17T12:58:22.838Z,67.00
2022-10-17T13:01:30.079Z,66.55
2022-10-17T13:04:18.307Z,65.94
2022-10-17T13:07:12.129Z,66.36
2022-10-17T13:10:03.736Z,66.19
2022-10-17T13:12:54.485Z,65.34
2022-10-17T13:15:42.009Z,65.42
2022-10-17T13:18:38.956Z,65.75
2022-10-17T13:21:34.865Z,65.21
2022-10-17T13:24:21.827Z,65.04
2022-10-17T13:27:08.802Z,66.29
2022-10-17T13:29:55.812Z,66.01
2022-10-17T13:32:44.045Z,65.84
2022-10-17T13:35:59.329Z,64.84
2022-10-17T13:38:51.206Z,65.25
2022-10-17T13:41:48.290Z,65.59
2022-10-17T13:44:43.258Z,65.55
2022-10-17T13:47:45.092Z,65.74
2022-10-17T13:51:00.365Z,65.92
2022-10-17T13:53:56.943Z,65.16
2022-10-17T13:56:46.131Z,65.31
2022-10-17T13:59:45.040Z,64.99
2022-10-17T14:02:36.738Z,64.41
2022-10-17T14:05:29.841Z,64.33
2022-10-17T14:08:23.815Z,64.40
2022-10-17T14:11:11.253Z,65.67
2022-10-17T14:13:58.238Z,64.64
2022-10-17T14:16:47.590Z,65.50
2022-10-17T14:19:51.489Z,65.55
2022-10-17T14:22:44.585Z,65.09
2022-10-17T14:25:53.958Z,65.21
2022-10-17T14:28:43.034Z,64.65
2022-10-17T14:31:40.967Z,64.87
2022-10-17T14:34:42.219Z,64.63
2022-10-17T14:37:47.637Z,64.79
2022-10-17T14:40:38.021Z,65.31
2022-10-17T14:43:26.814Z,65.67
2022-10-17T14:46:18.713Z,65.48
2022-10-17T14:49:05.787Z,65.15
2022-10-17T14:51:57.361Z,65.20
2022-10-17T14:54:55.917Z,65.61
2022-10-17T14:57:49.417Z,64.83
2022-10-17T15:00:38.436Z,65.05
2022-10-17T15:03:25.506Z,66.09
2022-10-17T15:06:14.019Z,66.38
2022-10-17T15:09:01.021Z,66.46
2022-10-17T15:11:28.597Z,66.32
2022-10-17T15:13:55.588Z,66.20
2022-10-17T15:16:25.540Z,66.51
2022-10-17T15:19:13.711Z,66.20
2022-10-17T15:22:00.762Z,66.24
2022-10-17T15:24:47.677Z,66.26
2022-10-17T15:27:45.374Z,67.00
2022-10-17T15:30:42.521Z,67.20
2022-10-17T15:33:29.565Z,67.14
2022-10-17T15:36:16.820Z,66.76
2022-10-17T15:39:03.911Z,67.42
2022-10-17T15:41:52.680Z,67.70
2022-10-17T15:44:39.641Z,67.03
2022-10-17T15:47:27.592Z,67.96
2022-10-17T15:50:15.575Z,67.15
2022-10-17T15:53:02.460Z,67.31
2022-10-17T15:55:49.465Z,67.08
2022-10-17T15:58:37.558Z,67.27
2022-10-17T16:01:25.648Z,67.23
2022-10-17T16:04:13.085Z,68.47
2022-10-17T16:07:00.049Z,67.88
2022-10-17T16:09:47.010Z,67.95
2022-10-17T16:12:29.154Z,68.04
2022-10-17T16:14:56.720Z,67.59
2022-10-17T16:17:43.983Z,68.26
2022-10-17T16:20:34.596Z,68.17
2022-10-17T16:23:23.745Z,68.13
2022-10-17T16:26:10.752Z,67.86
2022-10-17T16:28:57.996Z,68.36
2022-10-17T16:31:48.224Z,68.13
2022-10-17T16:34:36.150Z,68.85
2022-10-17T16:37:23.101Z,69.50
2022-10-17T16:40:10.109Z,69.68
2022-10-17T16:42:57.076Z,69.77
2022-10-17T16:45:44.040Z,69.73
2022-10-17T16:48:31.331Z,69.86
2022-10-17T16:51:18.375Z,70.11
2022-10-17T16:54:06.601Z,69.33
2022-10-17T16:56:53.680Z,69.91
2022-10-17T16:59:40.583Z,69.28
2022-10-17T17:02:27.911Z,69.24
2022-10-17T17:05:14.702Z,69.21
2022-10-17T17:08:01.731Z,69.29
2022-10-17T17:10:48.589Z,69.73
2022-10-17T17:13:35.910Z,70.07
2022-10-17T17:16:31.779Z,68.87
2022-10-17T17:19:26.061Z,69.33
2022-10-17T17:22:13.059Z,69.01
2022-10-17T17:25:00.113Z,69.34
2022-10-17T17:27:48.633Z,69.08
2022-10-17T17:30:36.098Z,69.46
2022-10-17T17:33:22.995Z,69.78
2022-10-17T17:36:21.257Z,70.09
2022-10-17T17:39:09.754Z,70.16
2022-10-17T17:41:57.417Z,70.39
2022-10-17T17:44:44.320Z,69.85
2022-10-17T17:47:31.688Z,70.01
2022-10-17T17:50:18.776Z,69.84
2022-10-17T17:53:05.739Z,70.02
2022-10-17T17:55:53.541Z,70.34
2022-10-17T17:58:40.482Z,70.47
2022-10-17T18:01:42.780Z,70.24
2022-10-17T18:04:31.323Z,70.54
2022-10-17T18:07:18.188Z,70.06
2022-10-17T18:10:05.160Z,70.34
2022-10-17T18:12:52.476Z,70.12
2022-10-17T18:15:39.542Z,70.33
2022-10-17T18:18:26.564Z,70.48
2022-10-17T18:21:13.841Z,70.81
2022-10-17T18:24:02.155Z,70.53
2022-10-17T18:26:49.236Z,70.88
2022-10-17T18:29:36.174Z,70.86
2022-10-17T18:32:23.189Z,71.33
2022-10-17T18:35:10.016Z,70.88
2022-10-17T18:37:57.098Z,71.11
2022-10-17T18:40:46.082Z,70.90
2022-10-17T18:43:35.772Z,70.98
2022-10-17T18:46:28.832Z,71.34
2022-10-17T18:49:16.306Z,71.20
2022-10-17T18:52:03.321Z,71.16
2022-10-17T18:54:50.469Z,71.17
2022-10-17T18:57:37.332Z,71.46
2022-10-17T19:00:25.024Z,71.57
2022-10-17T19:03:12.322Z,71.07
2022-10-17T19:06:01.202Z,71.39
2022-10-17T19:08:48.144Z,71.47
2022-10-17T19:11:38.280Z,71.82
2022-10-17T19:14:27.599Z,71.39
2022-10-17T19:17:14.484Z,71.65
2022-10-17T19:20:01.620Z,71.54
2022-10-17T19:22:49.183Z,71.60
2022-10-17T19:25:36.273Z,71.70
2022-10-17T19:28:23.530Z,72.03
2022-10-17T19:31:15.311Z,71.76
2022-10-17T19:34:04.683Z,71.72
2022-10-17T19:36:54.172Z,71.63
2022-10-17T19:39:43.037Z,72.07
2022-10-17T19:42:30.301Z,71.63
2022-10-17T19:45:17.827Z,71.40
2022-10-17T19:48:05.396Z,71.45
2022-10-17T19:50:52.522Z,71.57
2022-10-17T19:53:42.092Z,72.12
2022-10-17T19:56:29.792Z,71.83
2022-10-17T19:59:16.839Z,71.65
2022-10-17T20:02:05.002Z,72.14
2022-10-17T20:05:00.123Z,71.83
2022-10-17T20:07:59.520Z,71.44
2022-10-17T20:10:46.429Z,71.59
2022-10-17T20:13:34.346Z,71.62
2022-10-17T20:16:22.156Z,71.74
2022-10-17T20:19:10.624Z,71.98
2022-10-17T20:21:58.441Z,72.58
2022-10-17T20:24:45.557Z,72.01
2022-10-17T20:27:33.115Z,72.50
2022-10-17T20:30:20.232Z,72.52
2022-10-17T20:33:07.183Z,72.44
2022-10-17T20:35:54.667Z,72.43
2022-10-17T20:38:41.559Z,72.54
2022-10-17T20:41:30.092Z,71.97
2022-10-17T20:44:16.972Z,72.12
2022-10-17T20:47:04.667Z,72.72
2022-10-17T20:49:53.615Z,72.90
2022-10-17T20:52:40.768Z,72.70
2022-10-17T20:55:29.036Z,72.97
2022-10-17T20:58:16.043Z,73.05
2022-10-17T21:01:03.220Z,72.69
2022-10-17T21:03:50.101Z,72.70
2022-10-17T21:06:38.323Z,72.19
2022-10-17T21:09:26.325Z,72.41
2022-10-17T21:12:21.579Z,72.56
2022-10-17T21:15:18.656Z,73.27
2022-10-17T21:18:05.580Z,73.11
2022-10-17T21:20:52.561Z,72.86
2022-10-17T21:23:39.462Z,73.43
2022-10-17T21:26:26.853Z,72.63
2022-10-17T21:29:14.281Z,72.67
2022-10-17T21:32:10.586Z,73.05
2022-10-17T21:35:06.607Z,73.41
2022-10-17T21:37:53.418Z,73.03
2022-10-17T21:40:40.423Z,72.99
2022-10-17T21:43:27.575Z,73.47
2022-10-17T21:46:14.501Z,73.51
2022-10-17T21:49:01.678Z,73.65
2022-10-17T21:51:48.793Z,73.02
2022-10-17T21:54:36.870Z,73.49
2022-10-17T21:57:24.043Z,73.10
2022-10-17T22:00:10.841Z,73.18
2022-10-17T22:02:59.217Z,73.47
2022-10-17T22:05:46.061Z,74.19
2022-10-17T22:08:33.280Z,74.06
2022-10-17T22:11:26.021Z,73.46
2022-10-17T22:14:14.803Z,74.33
2022-10-17T22:17:01.971Z,73.48
2022-10-17T22:19:48.986Z,74.45
2022-10-17T22:22:35.850Z,73.46
2022-10-17T22:25:22.897Z,73.90
2022-10-17T22:28:09.893Z,73.84
2022-10-17T22:30:56.995Z,74.46
2022-10-17T22:33:43.917Z,74.59
2022-10-17T22:36:31.352Z,73.99
2022-10-17T22:39:18.229Z,74.53
2022-10-17T22:42:05.250Z,74.69
2022-10-17T22:44:52.120Z,74.37
2022-10-17T22:47:39.099Z,74.81
2022-10-17T22:50:26.392Z,74.74
2022-10-17T22:53:13.526Z,74.02
2022-10-17T22:56:00.327Z,74.60
2022-10-17T22:58:49.218Z,74.57
2022-10-17T23:01:38.611Z,74.43
2022-10-17T23:04:25.615Z,74.18
2022-10-17T23:07:12.411Z,74.33
2022-10-17T23:09:59.378Z,75.33
2022-10-17T23:12:46.248Z,74.38
2022-10-17T23:15:33.404Z,74.87
2022-10-17T23:18:21.408Z,74.35
2022-10-17T23:21:09.041Z,74.30
2022-10-17T23:23:56.647Z,75.08
2022-10-17T23:26:43.577Z,74.42
2022-10-17T23:29:30.396Z,74.76
2022-10-17T23:32:17.280Z,74.12
2022-10-17T23:35:04.147Z,75.09
2022-10-17T23:37:51.193Z,74.48
2022-10-17T23:40:38.206Z,74.30
2022-10-17T23:43:25.401Z,74.80
2022-10-17T23:46:12.875Z,74.43
2022-10-17T23:49:00.601Z,74.75
2022-10-17T23:51:47.501Z,74.21
2022-10-17T23:54:34.620Z,74.67
2022-10-17T23:57:21.454Z,74.57
